createdAt,value
2017-04-05T00:01:04.013Z,52.40
2017-04-05T00:02:09.400Z,52.40
2017-04-05T00:03:14.137Z,52.20
2017-04-05T00:04:20.409Z,52.70
2017-04-05T00:05:25.278Z,52.70
2017-04-05T00:06:30.756Z,52.50
2017-04-05T00:07:36.932Z,52.50
2017-04-05T00:08:41.692Z,52.50
2017-04-05T00:09:47.160Z,53.20
2017-04-05T00:10:52.452Z,53.10
2017-04-05T00:11:58.449Z,53.70
2017-04-05T00:13:03.132Z,53.60
2017-04-05T00:14:07.865Z,52.90
2017-04-05T00:15:14.290Z,52.70
2017-04-05T00:16:19.202Z,52.60
2017-04-05T00:17:25.356Z,52.50
2017-04-05T00:18:30.172Z,52.50
2017-04-05T00:19:35.806Z,52.70
2017-04-05T00:20:41.376Z,52.50
2017-04-05T00:21:47.665Z,52.60
2017-04-05T00:22:52.536Z,52.60
2017-04-05T00:23:57.199Z,53.30
2017-04-05T00:25:02.735Z,53.50
2017-04-05T00:26:08.429Z,53.80
2017-04-05T00:27:15.697Z,53.90
2017-04-05T00:28:20.597Z,53.90
2017-04-05T00:29:26.219Z,54.40
2017-04-05T00:30:31.873Z,54.30
2017-04-05T00:31:38.223Z,53.90
2017-04-05T00:32:42.989Z,53.80
2017-04-05T00:33:48.505Z,53.70
2017-04-05T00:34:54.042Z,53.50
2017-04-05T00:36:00.313Z,53.20
2017-04-05T00:37:05.010Z,53.20
2017-04-05T00:38:10.777Z,53.80
2017-04-05T00:39:16.265Z,53.50
2017-04-05T00:40:21.829Z,53.50
2017-04-05T00:41:27.217Z,53.70
2017-04-05T00:42:32.652Z,53.90
2017-04-05T00:43:37.591Z,53.90
2017-04-05T00:44:43.112Z,54.40
2017-04-05T00:45:48.630Z,54.40
2017-04-05T00:46:54.877Z,54.70
2017-04-05T00:47:59.997Z,54.70
2017-04-05T00:49:05.466Z,54.80
2017-04-05T00:50:11.067Z,55.00
2017-04-05T00:51:16.714Z,55.40
2017-04-05T00:52:22.168Z,54.50
2017-04-05T00:53:28.574Z,54.40
2017-04-05T00:54:34.114Z,54.30
2017-04-05T00:55:46.680Z,54.20
2017-04-05T00:56:53.029Z,54.00
2017-04-05T00:57:57.732Z,54.20
2017-04-05T00:59:03.328Z,54.10
2017-04-05T01:00:09.080Z,54.60
2017-04-05T01:01:14.512Z,54.80
2017-04-05T01:02:20.952Z,54.70
2017-04-05T01:03:25.797Z,54.70
2017-04-05T01:04:31.189Z,55.10
2017-04-05T01:05:36.196Z,55.10
2017-04-05T01:06:41.601Z,55.60
2017-04-05T01:07:46.389Z,55.60
2017-04-05T01:08:52.019Z,55.10
2017-04-05T01:09:57.475Z,55.60
2017-04-05T01:11:03.065Z,55.50
2017-04-05T01:12:08.389Z,55.00
2017-04-05T01:13:13.880Z,54.50
2017-04-05T01:14:18.813Z,54.50
2017-04-05T01:15:24.505Z,54.80
2017-04-05T01:16:30.119Z,55.00
2017-04-05T01:17:36.388Z,55.40
2017-04-05T01:18:41.966Z,55.80
2017-04-05T01:19:46.737Z,55.80
2017-04-05T01:20:52.469Z,55.50
2017-04-05T01:21:59.348Z,55.90
2017-04-05T01:23:04.600Z,55.80
2017-04-05T01:24:10.026Z,55.50
2017-04-05T01:25:15.695Z,55.60
2017-04-05T01:26:21.188Z,55.50
2017-04-05T01:27:27.704Z,55.40
2017-04-05T01:28:32.473Z,55.30
2017-04-05T01:29:37.949Z,55.30
2017-04-05T01:30:44.305Z,55.60
2017-04-05T01:31:49.105Z,55.60
2017-04-05T01:32:55.577Z,55.70
2017-04-05T01:34:01.200Z,55.50
2017-04-05T01:35:06.888Z,55.80
2017-04-05T01:36:12.472Z,55.70
2017-04-05T01:37:18.000Z,56.10
2017-04-05T01:38:22.902Z,56.00
2017-04-05T01:39:29.081Z,55.60
2017-04-05T01:40:34.049Z,55.60
2017-04-05T01:41:39.653Z,56.10
2017-04-05T01:42:44.329Z,55.30
2017-04-05T01:43:49.928Z,55.40
2017-04-05T01:44:55.566Z,55.50
2017-04-05T01:46:00.257Z,55.70
2017-04-05T01:47:06.628Z,55.70
2017-04-05T01:48:11.432Z,55.70
2017-04-05T01:49:17.024Z,55.90
2017-04-05T01:50:22.607Z,55.60
2017-04-05T01:51:28.308Z,55.50
2017-04-05T01:52:34.678Z,56.50
2017-04-05T01:53:39.482Z,56.40
2017-04-05T01:54:44.176Z,56.30
2017-04-05T01:55:49.852Z,56.40
2017-04-05T01:56:54.645Z,56.40
2017-04-05T01:58:00.940Z,56.10
2017-04-05T01:59:05.837Z,56.00
2017-04-05T02:00:11.431Z,55.90
2017-04-05T02:01:16.204Z,56.00
2017-04-05T02:02:21.808Z,55.70
2017-04-05T02:03:27.317Z,55.70
2017-04-05T02:04:33.648Z,55.60
2017-04-05T02:05:39.240Z,55.90
2017-04-05T02:06:44.083Z,55.80
2017-04-05T02:07:49.769Z,56.10
2017-04-05T02:08:55.360Z,55.90
2017-04-05T02:10:00.937Z,55.70
2017-04-05T02:11:06.493Z,56.20
2017-04-05T02:12:12.011Z,56.20
2017-04-05T02:13:18.369Z,55.90
2017-04-05T02:14:23.160Z,55.80
2017-04-05T02:15:28.715Z,55.70
2017-04-05T02:16:33.572Z,55.80
2017-04-05T02:17:39.760Z,56.00
2017-04-05T02:18:44.644Z,56.00
2017-04-05T02:19:50.242Z,56.50
2017-04-05T02:20:55.655Z,56.60
2017-04-05T02:22:01.921Z,56.50
2017-04-05T02:23:06.768Z,56.40
2017-04-05T02:24:13.137Z,56.70
2017-04-05T02:25:17.961Z,56.50
2017-04-05T02:26:23.380Z,56.30
2017-04-05T02:27:28.990Z,56.40
2017-04-05T02:28:34.608Z,56.60
2017-04-05T02:29:40.169Z,56.00
2017-04-05T02:30:45.817Z,55.70
2017-04-05T02:31:51.484Z,56.20
2017-04-05T02:32:56.944Z,56.10
2017-04-05T02:34:02.533Z,55.90
2017-04-05T02:35:08.825Z,55.80
2017-04-05T02:36:13.484Z,55.80
2017-04-05T02:37:19.784Z,56.20
2017-04-05T02:38:24.580Z,56.20
2017-04-05T02:39:30.910Z,55.80
2017-04-05T02:40:35.733Z,55.80
2017-04-05T02:41:41.344Z,55.80
2017-04-05T02:42:46.817Z,56.00
2017-04-05T02:43:53.276Z,56.00
2017-04-05T02:44:58.030Z,55.90
2017-04-05T02:46:04.401Z,56.30
2017-04-05T02:47:09.935Z,56.60
2017-04-05T02:48:14.725Z,56.60
2017-04-05T02:49:21.018Z,57.40
2017-04-05T02:50:25.844Z,57.40
2017-04-05T02:51:31.226Z,57.50
2017-04-05T02:52:36.796Z,57.50
2017-04-05T02:53:42.397Z,57.20
2017-04-05T02:54:47.885Z,57.40
2017-04-05T02:55:54.185Z,57.50
2017-04-05T02:56:58.884Z,57.40
2017-04-05T02:58:04.508Z,57.90
2017-04-05T02:59:10.797Z,57.80
2017-04-05T03:00:16.433Z,57.70
2017-04-05T03:01:21.202Z,57.90
2017-04-05T03:02:27.475Z,58.10
2017-04-05T03:03:33.209Z,58.10
2017-04-05T03:04:37.979Z,58.40
2017-04-05T03:05:43.613Z,57.60
2017-04-05T03:06:49.241Z,56.90
2017-04-05T03:07:54.760Z,57.80
2017-04-05T03:09:00.585Z,58.10
2017-04-05T03:10:06.768Z,58.40
2017-04-05T03:11:12.337Z,58.40
2017-04-05T03:12:16.993Z,58.20
2017-04-05T03:13:22.544Z,58.80
2017-04-05T03:14:27.313Z,58.80
2017-04-05T03:15:32.997Z,58.00
2017-04-05T03:16:38.508Z,58.60
2017-04-05T03:17:43.160Z,58.50
2017-04-05T03:18:48.769Z,58.80
2017-04-05T03:19:54.196Z,58.30
2017-04-05T03:20:59.081Z,58.30
2017-04-05T03:22:04.740Z,58.60
2017-04-05T03:23:10.256Z,58.10
2017-04-05T03:24:16.501Z,58.20
2017-04-05T03:25:21.497Z,58.20
2017-04-05T03:26:27.073Z,58.30
2017-04-05T03:27:33.481Z,57.50
2017-04-05T03:28:38.292Z,57.50
2017-04-05T03:29:44.530Z,57.10
2017-04-05T03:30:50.265Z,57.50
2017-04-05T03:31:55.077Z,57.40
2017-04-05T03:33:00.654Z,58.20
2017-04-05T03:34:05.445Z,58.20
2017-04-05T03:35:11.045Z,58.10
2017-04-05T03:36:17.366Z,59.20
2017-04-05T03:37:22.176Z,59.10
2017-04-05T03:38:27.752Z,57.90
2017-04-05T03:39:33.347Z,58.20
2017-04-05T03:40:38.969Z,58.10
2017-04-05T03:41:44.429Z,58.60
2017-04-05T03:42:49.884Z,58.00
2017-04-05T03:43:55.611Z,58.10
2017-04-05T03:45:01.140Z,58.20
2017-04-05T03:46:06.652Z,58.40
2017-04-05T03:47:12.151Z,58.40
2017-04-05T03:48:16.873Z,59.30
2017-04-05T03:49:22.574Z,59.00
2017-04-05T03:50:28.850Z,58.90
2017-04-05T03:51:33.637Z,58.90
2017-04-05T03:52:39.261Z,59.00
2017-04-05T03:53:44.841Z,58.70
2017-04-05T03:54:50.401Z,58.20
2017-04-05T03:55:55.876Z,58.80
2017-04-05T03:57:01.481Z,58.90
2017-04-05T03:58:06.257Z,58.70
2017-04-05T03:59:11.830Z,59.10
2017-04-05T04:00:18.184Z,58.40
2017-04-05T04:01:23.830Z,58.10
2017-04-05T04:02:28.568Z,58.10
2017-04-05T04:03:34.937Z,59.20
2017-04-05T04:04:39.860Z,59.20
2017-04-05T04:05:45.545Z,58.70
2017-04-05T04:06:51.084Z,58.90
2017-04-05T04:07:57.456Z,58.90
2017-04-05T04:09:02.198Z,58.90
2017-04-05T04:10:09.305Z,58.20
2017-04-05T04:11:14.421Z,58.20
2017-04-05T04:12:19.201Z,58.70
2017-04-05T04:13:25.069Z,58.40
2017-04-05T04:14:30.439Z,58.50
2017-04-05T04:15:35.856Z,58.20
2017-04-05T04:16:43.380Z,58.20
2017-04-05T04:17:48.230Z,58.40
2017-04-05T04:18:52.953Z,58.10
2017-04-05T04:19:58.560Z,58.40
2017-04-05T04:21:03.300Z,58.30
2017-04-05T04:22:08.957Z,58.30
2017-04-05T04:23:14.521Z,58.00
2017-04-05T04:24:19.928Z,58.90
2017-04-05T04:25:25.529Z,58.60
2017-04-05T04:26:31.064Z,59.10
2017-04-05T04:27:37.789Z,58.60
2017-04-05T04:28:42.500Z,58.80
2017-04-05T04:29:48.734Z,58.80
2017-04-05T04:30:54.352Z,58.60
2017-04-05T04:31:59.141Z,58.50
2017-04-05T04:33:04.888Z,58.20
2017-04-05T04:34:11.190Z,58.00
2017-04-05T04:35:15.884Z,58.30
2017-04-05T04:36:20.551Z,58.30
2017-04-05T04:37:25.243Z,58.30
2017-04-05T04:38:31.685Z,58.50
2017-04-05T04:39:37.333Z,58.60
2017-04-05T04:40:42.155Z,58.60
2017-04-05T04:41:47.609Z,58.50
2017-04-05T04:42:52.285Z,58.40
2017-04-05T04:43:58.480Z,58.70
2017-04-05T04:45:03.249Z,58.70
2017-04-05T04:46:08.833Z,58.20
2017-04-05T04:47:13.588Z,58.50
2017-04-05T04:48:19.141Z,58.30
2017-04-05T04:49:23.797Z,58.20
2017-04-05T04:50:29.204Z,58.30
2017-04-05T04:51:34.700Z,58.10
2017-04-05T04:52:40.285Z,58.40
2017-04-05T04:53:45.040Z,58.40
2017-04-05T04:54:50.536Z,59.50
2017-04-05T04:55:55.280Z,59.50
2017-04-05T04:57:00.802Z,59.10
2017-04-05T04:58:06.249Z,59.50
2017-04-05T04:59:11.097Z,59.60
2017-04-05T05:00:16.740Z,59.20
2017-04-05T05:01:22.141Z,59.40
2017-04-05T05:02:28.508Z,59.50
2017-04-05T05:03:33.322Z,59.50
2017-04-05T05:04:39.693Z,59.10
2017-04-05T05:05:44.527Z,59.00
2017-04-05T05:06:50.853Z,59.60
2017-04-05T05:07:56.478Z,59.50
2017-04-05T05:09:01.986Z,59.60
2017-04-05T05:10:07.477Z,59.90
2017-04-05T05:11:12.159Z,59.60
2017-04-05T05:12:17.719Z,59.80
2017-04-05T05:13:23.653Z,60.10
2017-04-05T05:14:28.944Z,59.90
2017-04-05T05:15:35.346Z,61.20
2017-04-05T05:16:40.121Z,60.20
2017-04-05T05:17:45.692Z,59.90
2017-04-05T05:18:51.085Z,59.70
2017-04-05T05:19:56.698Z,59.60
2017-04-05T05:21:01.385Z,59.60
2017-04-05T05:22:06.898Z,59.70
2017-04-05T05:23:12.520Z,59.40
2017-04-05T05:24:18.704Z,59.20
2017-04-05T05:25:24.469Z,59.50
2017-04-05T05:26:30.149Z,59.60
2017-04-05T05:27:35.856Z,59.60
2017-04-05T05:28:41.380Z,59.80
2017-04-05T05:29:46.216Z,59.80
2017-04-05T05:30:52.574Z,59.50
2017-04-05T05:31:58.211Z,59.20
2017-04-05T05:33:03.156Z,59.00
2017-04-05T05:34:08.606Z,58.50
2017-04-05T05:35:14.232Z,58.20
2017-04-05T05:36:18.978Z,58.70
2017-04-05T05:37:25.567Z,59.90
2017-04-05T05:38:31.306Z,59.80
2017-04-05T05:39:36.808Z,59.70
2017-04-05T05:40:42.261Z,59.50
2017-04-05T05:41:47.856Z,59.10
2017-04-05T05:42:52.629Z,59.00
2017-04-05T05:43:58.348Z,59.50
2017-04-05T05:45:04.674Z,60.60
2017-04-05T05:46:09.444Z,60.40
2017-04-05T05:47:14.957Z,59.60
2017-04-05T05:48:21.401Z,58.80
2017-04-05T05:49:26.237Z,58.70
2017-04-05T05:50:32.465Z,58.60
2017-04-05T05:51:37.238Z,58.60
2017-04-05T05:52:41.956Z,58.60
2017-04-05T05:53:48.288Z,58.00
2017-04-05T05:54:53.517Z,57.90
2017-04-05T05:55:58.791Z,57.60
2017-04-05T05:57:04.982Z,57.00
2017-04-05T05:58:09.845Z,56.90
2017-04-05T05:59:16.264Z,58.20
2017-04-05T06:00:21.888Z,58.20
2017-04-05T06:01:26.661Z,58.90
2017-04-05T06:02:32.882Z,58.30
2017-04-05T06:03:37.453Z,58.30
2017-04-05T06:04:42.865Z,59.40
2017-04-05T06:05:48.396Z,60.80
2017-04-05T06:06:53.182Z,60.70
2017-04-05T06:07:58.787Z,58.70
2017-04-05T06:09:03.701Z,58.60
2017-04-05T06:10:10.574Z,58.20
2017-04-05T06:11:16.362Z,57.50
2017-04-05T06:12:21.218Z,57.50
2017-04-05T06:13:25.980Z,57.30
2017-04-05T06:14:31.513Z,56.90
2017-04-05T06:15:37.040Z,57.00
2017-04-05T06:16:42.556Z,58.10
2017-04-05T06:17:48.100Z,57.00
2017-04-05T06:18:52.853Z,57.00
2017-04-05T06:19:58.400Z,56.80
2017-04-05T06:21:03.952Z,56.80
2017-04-05T06:22:08.717Z,57.50
2017-04-05T06:23:14.364Z,57.50
2017-04-05T06:24:20.700Z,56.90
2017-04-05T06:25:25.693Z,56.90
2017-04-05T06:26:31.868Z,57.90
2017-04-05T06:27:38.362Z,57.90
2017-04-05T06:28:43.169Z,57.90
2017-04-05T06:29:48.740Z,57.70
2017-04-05T06:30:54.365Z,57.70
2017-04-05T06:32:00.886Z,57.50
2017-04-05T06:33:06.429Z,56.80
2017-04-05T06:34:11.893Z,56.50
2017-04-05T06:35:16.702Z,56.50
2017-04-05T06:36:22.284Z,57.40
2017-04-05T06:37:27.901Z,57.00
2017-04-05T06:38:33.427Z,56.00
2017-04-05T06:39:38.093Z,55.90
2017-04-05T06:40:43.784Z,56.00
2017-04-05T06:41:50.063Z,57.50
2017-04-05T06:42:54.997Z,57.50
2017-04-05T06:44:00.578Z,57.50
2017-04-05T06:45:06.860Z,57.40
2017-04-05T06:46:11.757Z,56.70
2017-04-05T06:47:18.168Z,57.10
2017-04-05T06:48:23.672Z,57.60
2017-04-05T06:49:28.621Z,57.60
2017-04-05T06:50:34.229Z,57.40
2017-04-05T06:51:39.649Z,56.90
2017-04-05T06:52:44.340Z,56.80
2017-04-05T06:53:50.713Z,56.70
2017-04-05T06:54:55.589Z,56.70
2017-04-05T06:56:00.228Z,56.80
2017-04-05T06:57:04.908Z,56.90
2017-04-05T06:58:10.537Z,57.20
2017-04-05T06:59:16.161Z,56.70
2017-04-05T07:00:23.581Z,56.80
2017-04-05T07:01:28.446Z,56.80
2017-04-05T07:02:34.832Z,57.50
2017-04-05T07:03:39.625Z,57.50
2017-04-05T07:04:45.205Z,56.30
2017-04-05T07:05:51.684Z,56.40
2017-04-05T07:06:57.905Z,56.20
2017-04-05T07:08:02.954Z,56.20
2017-04-05T07:09:08.428Z,56.30
2017-04-05T07:10:13.117Z,56.30
2017-04-05T07:11:18.760Z,56.20
2017-04-05T07:12:24.949Z,56.00
2017-04-05T07:13:30.633Z,56.20
2017-04-05T07:14:35.344Z,56.20
2017-04-05T07:15:41.662Z,55.60
2017-04-05T07:16:47.130Z,55.60
2017-04-05T07:17:51.886Z,55.50
2017-04-05T07:18:56.766Z,54.80
2017-04-05T07:20:03.089Z,54.60
2017-04-05T07:21:07.784Z,54.40
2017-04-05T07:22:13.408Z,55.00
2017-04-05T07:23:18.970Z,55.80
2017-04-05T07:24:23.821Z,55.40
2017-04-05T07:25:30.116Z,56.00
2017-04-05T07:26:35.708Z,56.00
2017-04-05T07:27:42.313Z,56.80
2017-04-05T07:28:47.112Z,56.80
2017-04-05T07:29:51.710Z,55.40
2017-04-05T07:30:56.537Z,55.70
2017-04-05T07:32:02.977Z,55.40
2017-04-05T07:33:07.681Z,55.20
2017-04-05T07:34:13.144Z,55.70
2017-04-05T07:35:18.481Z,55.80
2017-04-05T07:36:23.136Z,55.60
2017-04-05T07:37:28.593Z,55.70
2017-04-05T07:38:34.220Z,55.90
2017-04-05T07:39:39.885Z,55.70
2017-04-05T07:40:46.281Z,55.50
2017-04-05T07:41:51.081Z,55.40
2017-04-05T07:42:55.788Z,55.50
2017-04-05T07:44:02.303Z,56.00
2017-04-05T07:45:07.741Z,55.80
2017-04-05T07:46:12.541Z,55.70
2017-04-05T07:47:18.194Z,55.70
2017-04-05T07:48:23.688Z,55.80
2017-04-05T07:49:30.048Z,56.60
2017-04-05T07:50:35.633Z,56.30
2017-04-05T07:51:41.165Z,55.20
2017-04-05T07:52:45.957Z,55.20
2017-04-05T07:53:52.313Z,55.20
2017-04-05T07:54:57.309Z,55.20
2017-04-05T07:56:02.747Z,55.30
2017-04-05T07:57:07.381Z,55.00
2017-04-05T07:58:12.776Z,55.80
2017-04-05T07:59:17.508Z,55.80
2017-04-05T08:00:22.209Z,55.60
2017-04-05T08:01:28.540Z,55.10
2017-04-05T08:02:33.478Z,55.20
2017-04-05T08:03:39.038Z,55.30
2017-04-05T08:04:43.814Z,55.50
2017-04-05T08:05:49.409Z,55.30
2017-04-05T08:06:54.152Z,55.30
2017-04-05T08:07:59.625Z,55.00
2017-04-05T08:09:06.645Z,55.10
2017-04-05T08:10:12.648Z,54.70
2017-04-05T08:11:17.365Z,54.70
2017-04-05T08:12:22.921Z,54.80
2017-04-05T08:13:27.541Z,54.80
2017-04-05T08:14:32.269Z,54.90
2017-04-05T08:15:37.885Z,54.90
2017-04-05T08:16:44.222Z,55.50
2017-04-05T08:17:49.041Z,55.50
2017-04-05T08:18:54.646Z,55.10
2017-04-05T08:19:59.293Z,54.50
2017-04-05T08:21:03.945Z,54.50
2017-04-05T08:22:10.390Z,53.70
2017-04-05T08:23:15.748Z,54.00
2017-04-05T08:24:20.672Z,53.40
2017-04-05T08:25:27.813Z,53.70
2017-04-05T08:26:32.961Z,53.70
2017-04-05T08:27:38.613Z,53.50
2017-04-05T08:28:44.909Z,53.20
2017-04-05T08:29:49.733Z,53.20
2017-04-05T08:30:56.041Z,53.00
2017-04-05T08:32:00.906Z,52.90
2017-04-05T08:33:06.513Z,52.60
2017-04-05T08:34:12.728Z,52.80
2017-04-05T08:35:17.385Z,52.80
2017-04-05T08:36:23.814Z,51.10
2017-04-05T08:37:29.432Z,51.30
2017-04-05T08:38:34.270Z,51.30
2017-04-05T08:39:40.549Z,52.10
2017-04-05T08:40:46.145Z,51.50
2017-04-05T08:41:51.698Z,51.70
2017-04-05T08:42:56.368Z,51.70
2017-04-05T08:44:02.150Z,52.10
2017-04-05T08:45:07.353Z,52.50
2017-04-05T08:46:12.116Z,52.70
2017-04-05T08:47:17.773Z,53.50
2017-04-05T08:48:23.317Z,52.00
2017-04-05T08:49:28.873Z,52.50
2017-04-05T08:50:35.013Z,52.70
2017-04-05T08:51:39.933Z,52.60
2017-04-05T08:52:45.608Z,51.60
2017-04-05T08:53:50.252Z,51.70
2017-04-05T08:54:55.810Z,51.90
2017-04-05T08:56:00.572Z,51.90
2017-04-05T08:57:06.105Z,51.40
2017-04-05T08:58:11.621Z,50.70
2017-04-05T08:59:17.981Z,51.10
2017-04-05T09:00:24.594Z,50.10
2017-04-05T09:01:29.377Z,50.10
2017-04-05T09:02:34.042Z,49.80
2017-04-05T09:03:39.509Z,50.40
2017-04-05T09:04:45.029Z,50.60
2017-04-05T09:05:51.257Z,50.40
2017-04-05T09:06:56.945Z,50.70
2017-04-05T09:08:01.678Z,50.70
2017-04-05T09:09:08.062Z,51.60
2017-04-05T09:10:12.706Z,51.60
2017-04-05T09:11:18.464Z,51.10
2017-04-05T09:12:24.058Z,51.40
2017-04-05T09:13:30.357Z,50.60
2017-04-05T09:14:35.038Z,50.60
2017-04-05T09:15:40.617Z,51.00
2017-04-05T09:16:45.304Z,51.30
2017-04-05T09:17:51.669Z,51.40
2017-04-05T09:18:56.465Z,51.40
2017-04-05T09:20:01.984Z,51.70
2017-04-05T09:21:07.603Z,51.70
2017-04-05T09:22:14.038Z,51.10
2017-04-05T09:23:19.485Z,51.30
2017-04-05T09:24:24.386Z,51.30
2017-04-05T09:25:29.101Z,51.30
2017-04-05T09:26:34.544Z,51.00
2017-04-05T09:27:40.913Z,50.30
2017-04-05T09:28:45.612Z,50.50
2017-04-05T09:29:50.437Z,51.00
2017-04-05T09:30:55.941Z,50.60
2017-04-05T09:32:01.421Z,50.70
2017-04-05T09:33:07.028Z,50.70
2017-04-05T09:34:13.204Z,50.20
2017-04-05T09:35:18.887Z,50.30
2017-04-05T09:36:23.562Z,50.20
2017-04-05T09:37:29.169Z,50.00
2017-04-05T09:38:35.460Z,50.60
2017-04-05T09:39:40.505Z,50.50
2017-04-05T09:40:45.968Z,50.70
2017-04-05T09:41:51.429Z,50.20
2017-04-05T09:42:57.798Z,49.10
2017-04-05T09:44:02.689Z,49.10
2017-04-05T09:45:08.241Z,49.60
2017-04-05T09:46:15.161Z,47.70
2017-04-05T09:47:20.154Z,47.60
2017-04-05T09:48:25.639Z,47.50
2017-04-05T09:49:31.252Z,47.80
2017-04-05T09:50:37.606Z,47.40
2017-04-05T09:51:42.364Z,47.40
2017-04-05T09:52:47.888Z,47.40
2017-04-05T09:53:54.173Z,47.70
2017-04-05T09:54:59.121Z,47.60
2017-04-05T09:56:04.656Z,48.00
2017-04-05T09:57:10.268Z,47.60
2017-04-05T09:58:15.844Z,47.70
2017-04-05T09:59:22.165Z,47.40
2017-04-05T10:00:28.687Z,47.40
2017-04-05T10:01:33.489Z,46.80
2017-04-05T10:02:39.820Z,47.20
2017-04-05T10:03:45.417Z,47.70
2017-04-05T10:04:50.345Z,47.20
2017-04-05T10:05:56.776Z,46.80
2017-04-05T10:07:02.261Z,47.20
2017-04-05T10:08:07.764Z,47.20
2017-04-05T10:09:13.451Z,46.10
2017-04-05T10:10:18.302Z,46.20
2017-04-05T10:11:23.831Z,46.40
2017-04-05T10:12:29.468Z,46.70
2017-04-05T10:13:34.944Z,46.20
2017-04-05T10:14:40.479Z,45.90
2017-04-05T10:15:46.816Z,45.40
2017-04-05T10:16:51.654Z,45.30
2017-04-05T10:17:56.377Z,46.40
2017-04-05T10:19:01.981Z,46.10
2017-04-05T10:20:07.548Z,46.70
2017-04-05T10:21:12.225Z,46.10
2017-04-05T10:22:17.750Z,45.30
2017-04-05T10:23:23.254Z,44.80
2017-04-05T10:24:28.717Z,45.80
2017-04-05T10:25:34.953Z,45.40
2017-04-05T10:26:40.577Z,45.70
2017-04-05T10:27:45.373Z,45.80
2017-04-05T10:28:50.876Z,45.10
2017-04-05T10:29:55.545Z,44.90
2017-04-05T10:31:01.833Z,44.90
2017-04-05T10:32:06.668Z,44.90
2017-04-05T10:33:12.340Z,44.20
2017-04-05T10:34:18.637Z,44.10
2017-04-05T10:35:23.345Z,44.10
2017-04-05T10:36:29.696Z,44.10
2017-04-05T10:37:35.330Z,44.00
2017-04-05T10:38:40.045Z,43.90
2017-04-05T10:39:45.553Z,43.10
2017-04-05T10:40:51.864Z,43.60
2017-04-05T10:41:57.432Z,44.50
2017-04-05T10:43:02.186Z,44.40
2017-04-05T10:44:08.733Z,43.50
2017-04-05T10:45:14.317Z,43.50
2017-04-05T10:46:19.676Z,43.20
2017-04-05T10:47:26.265Z,42.60
2017-04-05T10:48:31.776Z,42.50
2017-04-05T10:49:38.163Z,42.40
2017-04-05T10:50:43.044Z,42.40
2017-04-05T10:51:48.609Z,42.70
2017-04-05T10:52:53.252Z,42.70
2017-04-05T10:53:59.629Z,43.20
2017-04-05T10:55:04.522Z,43.00
2017-04-05T10:56:09.960Z,43.20
2017-04-05T10:57:15.480Z,42.70
2017-04-05T10:58:21.085Z,42.70
2017-04-05T10:59:26.621Z,42.50
2017-04-05T11:00:34.037Z,41.40
2017-04-05T11:01:39.641Z,41.10
2017-04-05T11:02:45.973Z,42.40
2017-04-05T11:03:50.989Z,42.40
2017-04-05T11:04:56.429Z,41.70
2017-04-05T11:06:02.165Z,42.10
2017-04-05T11:07:06.882Z,42.10
2017-04-05T11:08:12.344Z,42.10
2017-04-05T11:09:17.774Z,41.80
2017-04-05T11:10:22.459Z,41.90
2017-04-05T11:11:28.933Z,40.60
2017-04-05T11:12:33.597Z,40.60
2017-04-05T11:13:39.129Z,40.30
2017-04-05T11:14:43.838Z,41.50
2017-04-05T11:15:50.177Z,41.40
2017-04-05T11:16:54.995Z,41.30
2017-04-05T11:18:01.322Z,40.90
2017-04-05T11:19:06.157Z,40.90
2017-04-05T11:20:11.637Z,40.00
2017-04-05T11:21:17.209Z,41.20
2017-04-05T11:22:22.821Z,41.30
2017-04-05T11:23:28.422Z,40.80
2017-04-05T11:24:33.829Z,40.40
2017-04-05T11:25:38.612Z,40.30
2017-04-05T11:26:43.339Z,40.30
2017-04-05T11:27:50.641Z,41.40
2017-04-05T11:28:55.445Z,41.30
2017-04-05T11:30:01.021Z,41.00
2017-04-05T11:31:06.477Z,40.60
2017-04-05T11:32:11.347Z,40.60
2017-04-05T11:33:16.993Z,40.30
2017-04-05T11:34:22.181Z,40.30
2017-04-05T11:35:28.512Z,40.00
2017-04-05T11:36:34.117Z,40.00
2017-04-05T11:37:39.731Z,40.30
2017-04-05T11:38:46.072Z,40.60
2017-04-05T11:39:51.068Z,40.50
2017-04-05T11:40:57.408Z,40.10
2017-04-05T11:42:02.174Z,40.10
2017-04-05T11:43:07.701Z,40.00
2017-04-05T11:44:13.229Z,40.70
2017-04-05T11:45:18.741Z,40.50
2017-04-05T11:46:24.304Z,40.60
2017-04-05T11:47:29.896Z,40.70
2017-04-05T11:48:35.492Z,40.90
2017-04-05T11:49:41.121Z,41.00
2017-04-05T11:50:47.521Z,41.90
2017-04-05T11:51:53.140Z,40.60
2017-04-05T11:52:58.076Z,40.50
2017-04-05T11:54:03.760Z,40.30
2017-04-05T11:55:09.984Z,39.70
2017-04-05T11:56:14.833Z,39.60
2017-04-05T11:57:20.374Z,40.20
2017-04-05T11:58:25.035Z,40.20
2017-04-05T11:59:31.428Z,40.20
2017-04-05T12:00:36.397Z,40.10
2017-04-05T12:01:41.858Z,38.50
2017-04-05T12:02:48.203Z,38.30
2017-04-05T12:03:53.060Z,38.10
2017-04-05T12:04:59.297Z,38.90
2017-04-05T12:06:04.127Z,38.90
2017-04-05T12:07:10.505Z,37.80
2017-04-05T12:08:15.372Z,37.80
2017-04-05T12:09:20.837Z,37.90
2017-04-05T12:10:27.097Z,38.20
2017-04-05T12:11:32.028Z,38.20
2017-04-05T12:12:36.692Z,38.00
2017-04-05T12:13:42.360Z,37.60
2017-04-05T12:14:47.781Z,37.60
2017-04-05T12:15:53.333Z,38.10
2017-04-05T12:16:58.065Z,38.10
2017-04-05T12:18:04.267Z,37.60
2017-04-05T12:19:09.062Z,37.60
2017-04-05T12:20:14.606Z,38.20
2017-04-05T12:21:20.117Z,39.20
2017-04-05T12:22:25.177Z,39.20
2017-04-05T12:23:30.641Z,37.70
2017-04-05T12:24:36.261Z,37.60
2017-04-05T12:25:41.798Z,38.10
2017-04-05T12:26:48.062Z,37.50
2017-04-05T12:27:53.052Z,37.40
2017-04-05T12:28:58.601Z,37.70
2017-04-05T12:30:04.137Z,37.40
2017-04-05T12:31:09.620Z,36.70
2017-04-05T12:32:15.202Z,36.40
2017-04-05T12:33:20.814Z,37.40
2017-04-05T12:34:26.173Z,37.40
2017-04-05T12:35:31.786Z,37.30
2017-04-05T12:36:37.325Z,37.20
2017-04-05T12:37:43.527Z,37.90
2017-04-05T12:38:48.448Z,37.90
2017-04-05T12:39:53.778Z,37.70
2017-04-05T12:41:00.152Z,37.80
2017-04-05T12:42:05.034Z,37.70
2017-04-05T12:45:23.758Z,37.30
2017-04-05T12:46:29.225Z,37.50
2017-04-05T12:47:34.688Z,37.50
2017-04-05T12:48:39.377Z,37.50
2017-04-05T12:49:45.038Z,37.30
2017-04-05T12:50:51.333Z,36.60
2017-04-05T12:51:56.948Z,36.80
2017-04-05T12:53:01.810Z,36.90
2017-04-05T12:54:06.468Z,36.30
2017-04-05T12:55:11.988Z,36.80
2017-04-05T12:56:17.449Z,36.70
2017-04-05T12:57:22.272Z,36.70
2017-04-05T12:58:27.741Z,37.40
2017-04-05T12:59:34.130Z,37.90
2017-04-05T13:00:39.901Z,37.80
2017-04-05T13:01:45.444Z,36.70
2017-04-05T13:02:50.987Z,36.50
2017-04-05T13:03:55.770Z,36.50
2017-04-05T13:05:01.972Z,36.00
2017-04-05T13:06:07.008Z,36.00
2017-04-05T13:07:12.552Z,36.90
2017-04-05T13:08:17.376Z,37.00
2017-04-05T13:09:23.701Z,35.90
2017-04-05T13:10:28.645Z,35.80
2017-04-05T13:11:34.998Z,35.90
2017-04-05T13:12:39.730Z,35.80
2017-04-05T13:13:46.039Z,35.10
2017-04-05T13:14:50.737Z,35.10
2017-04-05T13:15:55.365Z,35.60
2017-04-05T13:17:00.234Z,36.10
2017-04-05T13:18:05.640Z,36.70
2017-04-05T13:19:11.217Z,36.40
2017-04-05T13:20:17.514Z,36.60
2017-04-05T13:21:22.300Z,36.60
2017-04-05T13:22:27.732Z,37.00
2017-04-05T13:23:34.120Z,36.90
2017-04-05T13:24:38.901Z,36.90
2017-04-05T13:25:44.340Z,36.20
2017-04-05T13:26:49.165Z,36.10
2017-04-05T13:27:55.440Z,36.40
2017-04-05T13:29:00.202Z,37.30
2017-04-05T13:30:05.831Z,36.30
2017-04-05T13:31:12.208Z,36.30
2017-04-05T13:32:18.645Z,35.20
2017-04-05T13:33:24.365Z,36.30
2017-04-05T13:34:28.993Z,36.30
2017-04-05T13:35:34.524Z,37.40
2017-04-05T13:36:40.166Z,37.20
2017-04-05T13:37:45.559Z,36.50
2017-04-05T13:38:51.965Z,35.90
2017-04-05T13:39:56.772Z,35.60
2017-04-05T13:41:02.325Z,35.30
2017-04-05T13:42:08.693Z,34.90
2017-04-05T13:43:14.271Z,35.00
2017-04-05T13:44:19.223Z,34.90
2017-04-05T13:45:24.608Z,34.80
2017-04-05T13:46:30.805Z,34.00
2017-04-05T13:47:35.556Z,34.00
2017-04-05T13:48:40.244Z,33.60
2017-04-05T13:49:45.872Z,34.00
2017-04-05T13:50:51.357Z,33.30
2017-04-05T13:51:56.752Z,34.20
2017-04-05T13:53:02.359Z,33.90
2017-04-05T13:54:07.940Z,34.20
2017-04-05T13:55:13.510Z,34.50
2017-04-05T13:56:19.756Z,33.90
2017-04-05T13:57:24.394Z,33.90
2017-04-05T13:58:29.935Z,34.00
2017-04-05T13:59:35.553Z,33.70
2017-04-05T14:00:43.062Z,33.20
2017-04-05T14:01:48.817Z,33.20
2017-04-05T14:02:55.141Z,32.90
2017-04-05T14:03:59.957Z,32.90
2017-04-05T14:05:04.609Z,33.90
2017-04-05T14:06:10.992Z,33.60